Time;durP1;ratioP1;P1;durP2;ratioP2;P2;SDS_P1;SDS_P2;PMS_P1;PMS_P2;Temp;Humidity;BMP_temperature;BMP_pressure;BME280_temperature;BME280_humidity;BME280_pressure;Samples;Min_cycle;Max_cycle;Signal;HPM_P1;HPM_P2
2022/06/14 00:01:40;;;;;;;5.75;2.85;;;;;;;;;;5102492;28;20051;-62
2022/06/14 00:04:06;;;;;;;9.05;2.67;;;;;;;;;;5111843;28;20061;-63
2022/06/14 00:06:33;;;;;;;6.90;2.20;;;;;;;;;;5110842;28;20634;-62
2022/06/14 00:09:00;;;;;;;7.47;2.70;;;;;;;;;;5102986;28;20131;-62
2022/06/14 00:11:26;;;;;;;7.55;2.40;;;;;;;;;;5106175;28;20038;-63
2022/06/14 00:13:53;;;;;;;5.80;2.25;;;;;;;;;;5103116;28;20411;-63
2022/06/14 00:16:20;;;;;;;6.70;2.63;;;;;;;;;;5103260;28;20032;-63
2022/06/14 00:18:46;;;;;;;4.78;2.40;;;;;;;;;;5103039;28;20051;-63
2022/06/14 00:21:13;;;;;;;8.77;2.33;;;;;;;;;;5088455;28;20278;-62
2022/06/14 00:23:39;;;;;;;7.60;2.60;;;;;;;;;;5098186;28;20060;-62
2022/06/14 00:26:05;;;;;;;7.40;2.45;;;;;;;;;;5101487;28;20040;-63
2022/06/14 00:28:32;;;;;;;6.03;2.17;;;;;;;;;;5096057;28;20074;-63
2022/06/14 00:31:03;;;;;;;5.32;2.22;;;;;;;;;;5113440;28;20051;-62
2022/06/14 00:33:29;;;;;;;;;;;;;;;;;;5111258;28;20503;-63
2022/06/14 00:36:00;;;;;;;7.47;2.50;;;;;;;;;;5109248;28;19920;-63
2022/06/14 00:38:26;;;;;;;5.85;2.55;;;;;;;;;;5094320;28;20070;-62
2022/06/14 00:40:55;;;;;;;4.75;2.13;;;;;;;;;;5111822;28;20035;-63
2022/06/14 00:43:21;;;;;;;6.95;2.40;;;;;;;;;;5103846;28;20040;-63
2022/06/14 00:45:48;;;;;;;4.55;1.98;;;;;;;;;;5111579;28;20408;-62
2022/06/14 00:48:14;;;;;;;5.72;2.38;;;;;;;;;;5106458;28;20389;-63
2022/06/14 00:50:43;;;;;;;5.68;2.25;;;;;;;;;;5098829;28;20363;-62
2022/06/14 00:53:14;;;;;;;4.93;2.13;;;;;;;;;;5098238;28;20039;-62
2022/06/14 00:55:42;;;;;;;2.17;1.57;;;;;;;;;;5105108;28;20520;-62
2022/06/14 00:58:08;;;;;;;5.53;1.80;;;;;;;;;;5103587;28;20043;-63
2022/06/14 01:00:39;;;;;;;5.93;2.20;;;;;;;;;;5104890;28;20402;-63
2022/06/14 01:03:08;;;;;;;7.80;3.05;;;;;;;;;;5106349;28;20032;-62
2022/06/14 01:08:24;;;;;;;6.78;2.47;;;;;;;;;;5103897;28;20043;-63
2022/06/14 01:10:50;;;;;;;4.43;2.42;;;;;;;;;;5100310;28;20078;-62
2022/06/14 01:13:18;;;;;;;5.80;2.53;;;;;;;;;;5108647;28;20046;-62
2022/06/14 01:15:45;;;;;;;5.82;2.60;;;;;;;;;;5108939;28;20439;-63
2022/06/14 01:18:13;;;;;;;4.43;2.05;;;;;;;;;;5092387;28;20497;-62
2022/06/14 01:20:40;;;;;;;5.70;2.63;;;;;;;;;;5104805;28;20043;-62
2022/06/14 01:23:08;;;;;;;8.75;2.90;;;;;;;;;;5112396;28;20089;-63
2022/06/14 01:25:37;;;;;;;8.85;2.63;;;;;;;;;;5111935;28;20036;-62
2022/06/14 01:28:04;;;;;;;6.82;2.75;;;;;;;;;;5107029;28;20496;-63
2022/06/14 01:30:32;;;;;;;6.97;2.42;;;;;;;;;;5099180;28;20048;-62
2022/06/14 01:33:00;;;;;;;7.47;2.80;;;;;;;;;;5108606;28;20046;-62
2022/06/14 01:35:28;;;;;;;5.75;2.70;;;;;;;;;;5098925;28;20035;-62
2022/06/14 01:37:55;;;;;;;3.58;2.45;;;;;;;;;;5105522;28;20106;-62
2022/06/14 01:40:25;;;;;;;6.68;3.10;;;;;;;;;;5109928;28;20400;-63
2022/06/14 01:42:54;;;;;;;9.60;2.65;;;;;;;;;;5100599;28;20074;-62
2022/06/14 01:45:35;;;;;;;6.75;2.63;;;;;;;;;;5092008;28;20044;-63
2022/06/14 01:48:33;;;;;;;5.32;2.60;;;;;;;;;;5092107;28;20073;-62
2022/06/14 01:51:51;;;;;;;4.30;2.13;;;;;;;;;;5054770;28;20100;-63
2022/06/14 01:54:10;;;;;;;3.83;2.00;;;;;;;;;;5101722;28;20401;-63
2022/06/14 01:56:54;;;;;;;3.83;1.75;;;;;;;;;;5107137;28;20400;-63
2022/06/14 01:59:29;;;;;;;4.25;1.63;;;;;;;;;;5084385;28;20157;-62
2022/06/14 02:01:55;;;;;;;4.32;1.83;;;;;;;;;;5106264;28;20119;-62
2022/06/14 02:04:38;;;;;;;4.43;1.95;;;;;;;;;;5100875;28;20158;-62
2022/06/14 02:07:24;;;;;;;2.85;1.77;;;;;;;;;;5100960;28;20035;-62
2022/06/14 02:10:03;;;;;;;5.55;2.22;;;;;;;;;;5100197;28;20450;-62
2022/06/14 02:12:38;;;;;;;4.75;2.15;;;;;;;;;;5108648;28;20074;-62
2022/06/14 02:15:27;;;;;;;2.83;1.70;;;;;;;;;;5095744;28;20054;-62
2022/06/14 02:18:18;;;;;;;5.13;2.50;;;;;;;;;;5089988;28;20072;-62
2022/06/14 02:20:53;;;;;;;6.38;2.45;;;;;;;;;;5101936;28;20042;-62
2022/06/14 02:23:20;;;;;;;7.03;2.60;;;;;;;;;;5101073;28;20044;-63
2022/06/14 02:25:55;;;;;;;2.53;1.40;;;;;;;;;;5101948;28;20043;-62
2022/06/14 02:28:23;;;;;;;4.13;1.98;;;;;;;;;;5106743;28;20036;-62
2022/06/14 02:30:51;;;;;;;6.32;2.60;;;;;;;;;;5103441;28;20561;-62
2022/06/14 02:33:17;;;;;;;2.13;1.50;;;;;;;;;;5100569;28;20044;-62
2022/06/14 02:35:52;;;;;;;4.47;1.65;;;;;;;;;;5104403;28;20101;-62
2022/06/14 02:38:21;;;;;;;3.38;1.63;;;;;;;;;;5109837;28;20489;-62
2022/06/14 02:40:52;;;;;;;5.80;1.85;;;;;;;;;;5106914;22;20050;-64
2022/06/14 02:43:23;;;;;;;4.18;2.08;;;;;;;;;;5089739;28;20047;-64
2022/06/14 02:45:55;;;;;;;5.57;1.65;;;;;;;;;;5091623;28;20043;-64
2022/06/14 02:48:20;;;;;;;;;;;;;;;;;;5087780;28;20047;-64
2022/06/14 02:50:56;;;;;;;2.63;1.30;;;;;;;;;;5088333;28;19919;-64
2022/06/14 02:53:25;;;;;;;5.32;1.80;;;;;;;;;;5090752;28;20090;-63
2022/06/14 02:56:13;;;;;;;3.78;2.13;;;;;;;;;;5090542;28;20725;-64
2022/06/14 02:58:41;;;;;;;3.22;1.58;;;;;;;;;;5083874;28;20382;-64
2022/06/14 03:01:07;;;;;;;2.25;1.83;;;;;;;;;;5089427;28;20123;-64
2022/06/14 03:03:33;;;;;;;3.05;2.22;;;;;;;;;;5089862;28;20752;-64
2022/06/14 03:06:25;;;;;;;3.88;2.35;;;;;;;;;;5089395;28;20047;-64
2022/06/14 03:08:56;;;;;;;3.38;1.50;;;;;;;;;;5070635;28;20109;-64
2022/06/14 03:11:31;;;;;;;2.60;1.53;;;;;;;;;;5093974;28;20042;-64
2022/06/14 03:14:06;;;;;;;2.50;1.55;;;;;;;;;;5086357;28;20047;-64
2022/06/14 03:16:38;;;;;;;4.05;1.67;;;;;;;;;;5092274;28;20062;-63
2022/06/14 03:19:11;;;;;;;1.58;1.10;;;;;;;;;;5094091;28;20044;-64
2022/06/14 03:21:46;;;;;;;2.90;2.00;;;;;;;;;;5093127;28;20055;-64
2022/06/14 03:24:18;;;;;;;4.47;2.70;;;;;;;;;;5093546;28;20024;-64
2022/06/14 03:26:50;;;;;;;6.22;3.00;;;;;;;;;;5091348;28;20436;-64
2022/06/14 03:29:21;;;;;;;6.00;3.17;;;;;;;;;;5070710;28;20036;-64
2022/06/14 03:31:51;;;;;;;4.57;2.60;;;;;;;;;;5090870;28;20421;-63
2022/06/14 03:34:27;;;;;;;3.83;2.22;;;;;;;;;;5093338;28;20036;-63
2022/06/14 03:36:54;;;;;;;4.55;2.30;;;;;;;;;;5092501;28;20047;-64
2022/06/14 03:39:23;;;;;;;5.15;2.65;;;;;;;;;;5093548;28;20128;-64
2022/06/14 03:41:51;;;;;;;2.35;1.90;;;;;;;;;;5092183;28;20086;-64
2022/06/14 03:44:18;;;;;;;4.88;2.17;;;;;;;;;;5092367;28;20432;-63
2022/06/14 03:47:07;;;;;;;3.13;2.10;;;;;;;;;;5090238;28;20185;-65
2022/06/14 03:49:34;;;;;;;2.88;1.92;;;;;;;;;;5073079;28;20048;-64
2022/06/14 03:52:08;;;;;;;2.28;2.08;;;;;;;;;;5076083;28;20052;-64
2022/06/14 03:54:52;;;;;;;3.75;2.17;;;;;;;;;;5093325;28;20068;-63
2022/06/14 03:57:24;;;;;;;4.22;2.65;;;;;;;;;;5088765;28;20044;-64
2022/06/14 03:59:50;;;;;;;4.63;2.75;;;;;;;;;;5090621;28;20055;-64
2022/06/14 04:05:27;;;;;;;3.97;2.88;;;;;;;;;;5090629;28;20032;-63
2022/06/14 04:07:59;;;;;;;6.88;2.70;;;;;;;;;;5093082;28;20040;-64
2022/06/14 04:10:36;;;;;;;4.93;2.38;;;;;;;;;;5083957;28;20064;-64
2022/06/14 04:13:13;;;;;;;4.20;1.98;;;;;;;;;;5092585;28;20040;-64
2022/06/14 04:15:53;;;;;;;3.80;2.00;;;;;;;;;;5082265;28;20044;-64
2022/06/14 04:21:11;;;;;;;4.28;2.20;;;;;;;;;;5092564;28;20040;-64
2022/06/14 04:23:41;;;;;;;4.70;2.30;;;;;;;;;;5084469;28;20043;-64
2022/06/14 04:26:23;;;;;;;4.47;2.35;;;;;;;;;;5089232;28;20063;-64
2022/06/14 04:28:53;;;;;;;3.47;2.70;;;;;;;;;;5091041;28;20501;-63
2022/06/14 04:31:34;;;;;;;4.93;3.03;;;;;;;;;;5080226;28;20036;-64
2022/06/14 04:34:03;;;;;;;3.90;3.17;;;;;;;;;;5086433;28;20047;-64
2022/06/14 04:36:36;;;;;;;6.43;3.33;;;;;;;;;;5086620;28;20032;-64
2022/06/14 04:39:08;;;;;;;7.65;3.60;;;;;;;;;;5087726;28;20120;-64
2022/06/14 04:41:40;;;;;;;6.00;3.60;;;;;;;;;;5090827;28;20077;-64
2022/06/14 04:44:06;;;;;;;5.50;3.90;;;;;;;;;;5088963;28;20067;-64
2022/06/14 04:46:35;;;;;;;7.47;3.72;;;;;;;;;;5069529;28;20041;-64
2022/06/14 04:49:20;;;;;;;7.97;4.53;;;;;;;;;;5082410;28;20036;-64
2022/06/14 04:52:08;;;;;;;9.60;4.53;;;;;;;;;;5070661;28;20047;-64
2022/06/14 04:54:37;;;;;;;8.25;4.05;;;;;;;;;;5070052;28;20132;-64
2022/06/14 04:57:09;;;;;;;9.60;4.93;;;;;;;;;;5087973;28;20036;-64
2022/06/14 04:59:47;;;;;;;8.82;4.80;;;;;;;;;;5088118;28;20035;-64
2022/06/14 05:02:23;;;;;;;8.32;4.88;;;;;;;;;;5090443;28;20044;-62
2022/06/14 05:04:55;;;;;;;10.27;4.72;;;;;;;;;;5067443;28;20501;-62
2022/06/14 05:07:25;;;;;;;10.07;5.10;;;;;;;;;;5074447;28;20086;-61
2022/06/14 05:09:59;;;;;;;8.50;5.07;;;;;;;;;;5089021;28;20043;-62
2022/06/14 05:12:27;;;;;;;11.73;5.57;;;;;;;;;;5085871;28;20043;-62
2022/06/14 05:14:56;;;;;;;10.35;4.97;;;;;;;;;;5087630;28;20048;-62
2022/06/14 05:17:31;;;;;;;11.35;5.78;;;;;;;;;;5090609;28;20040;-61
2022/06/14 05:20:31;;;;;;;11.35;5.03;;;;;;;;;;5085271;28;20036;-62
2022/06/14 05:23:02;;;;;;;9.50;5.40;;;;;;;;;;5049425;28;20044;-61
2022/06/14 05:25:34;;;;;;;8.00;4.93;;;;;;;;;;5088090;28;20044;-61
2022/06/14 05:28:09;;;;;;;11.63;6.10;;;;;;;;;;5091875;28;20074;-61
2022/06/14 05:30:54;;;;;;;8.52;5.15;;;;;;;;;;5091685;28;20040;-61
2022/06/14 05:33:32;;;;;;;9.65;5.07;;;;;;;;;;5090353;28;20031;-61
2022/06/14 05:36:11;;;;;;;11.07;5.03;;;;;;;;;;5090920;28;20093;-61
2022/06/14 05:38:42;;;;;;;11.52;6.13;;;;;;;;;;5085753;28;20509;-61
2022/06/14 05:41:08;;;;;;;11.73;5.13;;;;;;;;;;5065429;28;20048;-61
2022/06/14 05:43:38;;;;;;;8.57;4.50;;;;;;;;;;5092135;28;20073;-61
2022/06/14 05:46:06;;;;;;;10.75;4.57;;;;;;;;;;5089704;28;20444;-62
2022/06/14 05:48:59;;;;;;;10.20;5.07;;;;;;;;;;5088782;28;20044;-61
2022/06/14 05:51:27;;;;;;;14.13;5.05;;;;;;;;;;5084750;28;20505;-62
2022/06/14 05:54:07;;;;;;;12.43;5.10;;;;;;;;;;5088235;28;20050;-61
2022/06/14 05:56:39;;;;;;;10.40;5.28;;;;;;;;;;5083398;28;20127;-61
2022/06/14 05:59:14;;;;;;;13.32;4.78;;;;;;;;;;5084128;28;20486;-62
2022/06/14 06:01:44;;;;;;;15.60;4.80;;;;;;;;;;5083076;28;20032;-61
2022/06/14 06:04:13;;;;;;;10.85;4.68;;;;;;;;;;5090475;28;20036;-61
2022/06/14 06:06:42;;;;;;;14.60;5.10;;;;;;;;;;5085995;28;20070;-61
2022/06/14 06:09:14;;;;;;;11.75;4.38;;;;;;;;;;5068599;28;20055;-61
2022/06/14 06:11:40;;;;;;;10.48;4.68;;;;;;;;;;5086923;28;20032;-61
2022/06/14 06:14:06;;;;;;;12.88;4.60;;;;;;;;;;5086615;28;20036;-61
2022/06/14 06:19:19;;;;;;;12.85;4.43;;;;;;;;;;5082947;28;20044;-61
2022/06/14 06:21:53;;;;;;;11.70;4.38;;;;;;;;;;5090244;28;20040;-61
2022/06/14 06:24:19;;;;;;;13.05;3.80;;;;;;;;;;5087890;28;20406;-62
2022/06/14 06:26:47;;;;;;;10.75;4.28;;;;;;;;;;5085497;28;20509;-62
2022/06/14 06:29:17;;;;;;;11.85;4.00;;;;;;;;;;5083498;28;20051;-62
2022/06/14 06:31:43;;;;;;;11.50;3.50;;;;;;;;;;5089571;28;20504;-62
2022/06/14 06:34:11;;;;;;;12.00;3.80;;;;;;;;;;5084927;28;20120;-61
2022/06/14 06:36:37;;;;;;;11.15;3.53;;;;;;;;;;5083995;28;20040;-61
2022/06/14 06:39:22;;;;;;;8.57;3.15;;;;;;;;;;5086988;28;20040;-61
2022/06/14 06:41:54;;;;;;;14.00;3.58;;;;;;;;;;5087000;28;20524;-61
2022/06/14 06:44:33;;;;;;;9.23;3.42;;;;;;;;;;5086887;28;20048;-61
2022/06/14 06:47:17;;;;;;;9.80;3.55;;;;;;;;;;5088059;28;20046;-61
2022/06/14 06:49:49;;;;;;;9.93;3.72;;;;;;;;;;5089832;28;20061;-61
2022/06/14 06:52:18;;;;;;;11.68;3.47;;;;;;;;;;5093252;28;20036;-61
2022/06/14 06:54:52;;;;;;;11.93;4.20;;;;;;;;;;5094022;28;20764;-61
2022/06/14 06:57:19;;;;;;;12.35;3.83;;;;;;;;;;5094274;28;20499;-61
2022/06/14 06:59:47;;;;;;;9.93;3.92;;;;;;;;;;5087841;28;20040;-61
2022/06/14 07:02:17;;;;;;;6.97;2.88;;;;;;;;;;5085550;28;20388;-61
2022/06/14 07:07:31;;;;;;;9.07;3.15;;;;;;;;;;5090965;28;20044;-61
2022/06/14 07:10:02;;;;;;;9.02;3.40;;;;;;;;;;5092146;28;20036;-62
2022/06/14 07:12:32;;;;;;;8.93;3.22;;;;;;;;;;5090768;28;20036;-62
2022/06/14 07:15:04;;;;;;;9.20;2.78;;;;;;;;;;5090386;28;20040;-61
2022/06/14 07:17:33;;;;;;;7.85;3.10;;;;;;;;;;5094660;28;20036;-62
2022/06/14 07:20:08;;;;;;;7.85;2.80;;;;;;;;;;5088283;28;20481;-62
2022/06/14 07:22:34;;;;;;;7.07;2.38;;;;;;;;;;5090251;28;20041;-62
2022/06/14 07:25:10;;;;;;;9.18;2.88;;;;;;;;;;5072963;28;20434;-62
2022/06/14 07:27:59;;;;;;;11.30;2.90;;;;;;;;;;5088912;28;20105;-62
2022/06/14 07:30:47;;;;;;;7.90;2.58;;;;;;;;;;5086136;28;20044;-62
2022/06/14 07:33:13;;;;;;;5.65;2.55;;;;;;;;;;5094333;28;20050;-62
2022/06/14 07:35:54;;;;;;;8.85;2.30;;;;;;;;;;5094665;28;20036;-62
2022/06/14 07:38:25;;;;;;;13.02;2.50;;;;;;;;;;5059712;28;20043;-62
2022/06/14 07:40:51;;;;;;;9.52;2.40;;;;;;;;;;5094271;28;20047;-62
2022/06/14 07:43:23;;;;;;;11.10;2.70;;;;;;;;;;5076157;28;20425;-62
2022/06/14 07:45:50;;;;;;;9.63;2.80;;;;;;;;;;5094599;28;20098;-62
2022/06/14 07:48:25;;;;;;;8.10;2.53;;;;;;;;;;5094124;28;20504;-62
2022/06/14 07:51:00;;;;;;;11.25;2.20;;;;;;;;;;5076168;28;20044;-62
2022/06/14 07:53:33;;;;;;;6.30;2.47;;;;;;;;;;5094166;28;20061;-62
2022/06/14 07:56:03;;;;;;;6.63;2.30;;;;;;;;;;5094005;28;20036;-62
2022/06/14 07:58:35;;;;;;;8.05;2.50;;;;;;;;;;5094028;28;20054;-62
2022/06/14 08:01:07;;;;;;;6.50;2.28;;;;;;;;;;5094107;28;20125;-62
2022/06/14 08:03:37;;;;;;;7.50;2.28;;;;;;;;;;5093916;28;20512;-62
2022/06/14 08:06:09;;;;;;;5.70;2.10;;;;;;;;;;5093936;28;20044;-62
2022/06/14 08:08:36;;;;;;;8.07;2.13;;;;;;;;;;5093518;28;20040;-62
2022/06/14 08:11:05;;;;;;;8.07;2.30;;;;;;;;;;5093985;28;20047;-62
2022/06/14 08:13:35;;;;;;;5.40;2.13;;;;;;;;;;5093712;28;20520;-62
2022/06/14 08:16:02;;;;;;;6.38;1.92;;;;;;;;;;5093761;28;20046;-62
2022/06/14 08:18:31;;;;;;;7.72;2.17;;;;;;;;;;5093398;28;20040;-62
2022/06/14 08:21:00;;;;;;;4.70;2.17;;;;;;;;;;5093519;28;20036;-62
2022/06/14 08:23:29;;;;;;;6.22;1.92;;;;;;;;;;5093465;28;20051;-62
2022/06/14 08:26:24;;;;;;;5.28;1.90;;;;;;;;;;5093511;28;20478;-62
2022/06/14 08:28:56;;;;;;;7.30;1.88;;;;;;;;;;5079831;28;20052;-62
2022/06/14 08:31:28;;;;;;;4.82;1.85;;;;;;;;;;5093282;28;20051;-62
2022/06/14 08:33:57;;;;;;;5.28;1.77;;;;;;;;;;5093514;28;20047;-62
2022/06/14 08:36:26;;;;;;;6.72;1.60;;;;;;;;;;5093446;28;20127;-62
2022/06/14 08:38:57;;;;;;;4.35;1.50;;;;;;;;;;5093003;28;20071;-62
2022/06/14 08:41:30;;;;;;;6.15;1.70;;;;;;;;;;5123798;22;20032;-60
2022/06/14 08:43:59;;;;;;;5.63;1.70;;;;;;;;;;5095472;28;20044;-59
2022/06/14 08:46:41;;;;;;;6.95;1.60;;;;;;;;;;5113634;28;20054;-60
2022/06/14 08:49:09;;;;;;;7.57;1.77;;;;;;;;;;5113282;28;20039;-60
2022/06/14 08:51:54;;;;;;;12.35;2.15;;;;;;;;;;5113384;28;20039;-60
2022/06/14 08:54:26;;;;;;;5.75;1.60;;;;;;;;;;5113201;28;20047;-60
2022/06/14 08:57:08;;;;;;;5.90;1.75;;;;;;;;;;5095324;28;20078;-60
2022/06/14 08:59:48;;;;;;;6.97;2.00;;;;;;;;;;5112780;28;20089;-60
2022/06/14 09:02:14;;;;;;;7.87;1.90;;;;;;;;;;5113867;28;20108;-60
2022/06/14 09:04:58;;;;;;;5.88;1.50;;;;;;;;;;5112228;28;20035;-60
2022/06/14 09:07:24;;;;;;;7.07;1.75;;;;;;;;;;5113578;28;20046;-60
2022/06/14 09:10:13;;;;;;;4.95;1.75;;;;;;;;;;5112896;28;20035;-60
2022/06/14 09:12:48;;;;;;;5.95;1.48;;;;;;;;;;5113055;28;20069;-60
2022/06/14 09:15:16;;;;;;;6.28;1.75;;;;;;;;;;5112858;28;20519;-60
2022/06/14 09:18:01;;;;;;;5.43;1.85;;;;;;;;;;5112960;28;20493;-60
2022/06/14 09:20:45;;;;;;;5.93;1.58;;;;;;;;;;5112499;28;20042;-60
2022/06/14 09:23:17;;;;;;;5.75;1.55;;;;;;;;;;5112875;28;20493;-60
2022/06/14 09:25:43;;;;;;;5.43;1.45;;;;;;;;;;5113032;28;20047;-60
2022/06/14 09:28:27;;;;;;;4.35;1.38;;;;;;;;;;5112971;28;20370;-60
2022/06/14 09:30:54;;;;;;;5.30;1.48;;;;;;;;;;5112435;28;20040;-60
2022/06/14 09:33:23;;;;;;;4.53;1.52;;;;;;;;;;5112816;28;20047;-60
2022/06/14 09:35:58;;;;;;;5.80;1.60;;;;;;;;;;5112444;28;20036;-60
2022/06/14 09:38:36;;;;;;;5.25;1.48;;;;;;;;;;5112639;28;20505;-60
2022/06/14 09:41:13;;;;;;;5.32;1.55;;;;;;;;;;5112430;28;20032;-60
2022/06/14 09:43:58;;;;;;;3.95;1.45;;;;;;;;;;5112601;28;20035;-60
2022/06/14 09:46:32;;;;;;;6.45;1.70;;;;;;;;;;5112313;28;20046;-60
2022/06/14 09:49:17;;;;;;;5.10;1.58;;;;;;;;;;5112242;28;20485;-60
2022/06/14 09:51:58;;;;;;;5.10;1.50;;;;;;;;;;5112533;28;20054;-60
2022/06/14 09:54:24;;;;;;;4.05;1.55;;;;;;;;;;5112395;28;20126;-60
2022/06/14 09:56:50;;;;;;;5.43;1.40;;;;;;;;;;5112207;28;20127;-60
2022/06/14 09:59:19;;;;;;;4.70;1.80;;;;;;;;;;5112285;28;20031;-60
2022/06/14 10:01:51;;;;;;;6.32;1.75;;;;;;;;;;5112206;28;20044;-60
2022/06/14 10:04:26;;;;;;;4.18;1.55;;;;;;;;;;5112499;28;20123;-60
2022/06/14 10:07:01;;;;;;;4.15;1.65;;;;;;;;;;5112284;28;20114;-60
2022/06/14 10:09:32;;;;;;;5.22;1.60;;;;;;;;;;5112096;28;20036;-60
2022/06/14 10:11:58;;;;;;;5.82;1.38;;;;;;;;;;5112314;28;20036;-60
2022/06/14 10:14:33;;;;;;;3.83;1.38;;;;;;;;;;5112244;28;20122;-60
2022/06/14 10:17:14;;;;;;;4.20;1.42;;;;;;;;;;5115100;28;20063;-60
2022/06/14 10:19:43;;;;;;;5.03;1.38;;;;;;;;;;5115903;28;20043;-60
2022/06/14 10:22:23;;;;;;;7.95;1.58;;;;;;;;;;5116452;28;20044;-60
2022/06/14 10:24:55;;;;;;;5.45;1.65;;;;;;;;;;5116380;28;20047;-60
2022/06/14 10:28:13;;;;;;;6.15;1.60;;;;;;;;;;5116295;28;20043;-60
2022/06/14 10:30:41;;;;;;;4.63;1.30;;;;;;;;;;5111662;28;20043;-60
2022/06/14 10:33:16;;;;;;;6.30;1.50;;;;;;;;;;5116361;28;20043;-60
2022/06/14 10:35:42;;;;;;;4.35;1.63;;;;;;;;;;5115983;28;20392;-60
2022/06/14 10:38:27;;;;;;;6.53;1.23;;;;;;;;;;5116143;28;20035;-60
2022/06/14 10:40:57;;;;;;;3.38;1.40;;;;;;;;;;5115700;28;20077;-60
2022/06/14 10:43:23;;;;;;;5.07;1.55;;;;;;;;;;5116159;28;20035;-60
2022/06/14 10:45:49;;;;;;;5.75;1.40;;;;;;;;;;5097597;28;20050;-60
2022/06/14 10:48:38;;;;;;;6.70;1.63;;;;;;;;;;5115970;28;20071;-60
2022/06/14 10:51:04;;;;;;;5.53;1.30;;;;;;;;;;5115555;28;20558;-60
2022/06/14 10:53:40;;;;;;;6.88;1.60;;;;;;;;;;5115933;28;20036;-60
2022/06/14 10:56:25;;;;;;;3.60;1.40;;;;;;;;;;5115739;28;20063;-60
2022/06/14 10:59:14;;;;;;;5.35;1.42;;;;;;;;;;5115427;28;20032;-60
2022/06/14 11:01:59;;;;;;;3.78;1.40;;;;;;;;;;5115656;28;20035;-60
2022/06/14 11:04:25;;;;;;;3.33;1.52;;;;;;;;;;5097555;28;20048;-60
2022/06/14 11:06:57;;;;;;;2.95;1.23;;;;;;;;;;5115432;28;20042;-60
2022/06/14 11:09:35;;;;;;;3.20;1.20;;;;;;;;;;5115310;28;20067;-60
2022/06/14 11:12:19;;;;;;;2.47;1.13;;;;;;;;;;5115356;28;20044;-60
2022/06/14 11:14:49;;;;;;;5.13;1.30;;;;;;;;;;5115438;28;20046;-60
2022/06/14 11:17:35;;;;;;;4.93;1.25;;;;;;;;;;5115347;28;20032;-60
2022/06/14 11:20:01;;;;;;;5.03;1.30;;;;;;;;;;5093311;28;20051;-60
2022/06/14 11:22:39;;;;;;;3.50;1.20;;;;;;;;;;5115189;28;20036;-60
2022/06/14 11:25:17;;;;;;;4.88;1.58;;;;;;;;;;5115281;28;20047;-60
2022/06/14 11:28:02;;;;;;;5.57;1.40;;;;;;;;;;5114267;28;20096;-60
2022/06/14 11:30:46;;;;;;;6.15;1.80;;;;;;;;;;5114563;28;20565;-60
2022/06/14 11:33:31;;;;;;;2.45;1.17;;;;;;;;;;5115085;28;20040;-60
2022/06/14 11:36:09;;;;;;;6.82;1.30;;;;;;;;;;5114903;28;20516;-60
2022/06/14 11:38:50;;;;;;;3.60;1.30;;;;;;;;;;5114676;28;20040;-59
2022/06/14 11:41:18;;;;;;;3.45;1.20;;;;;;;;;;5114617;28;20567;-60
2022/06/14 11:43:45;;;;;;;3.55;1.27;;;;;;;;;;5114986;28;20048;-60
2022/06/14 11:46:14;;;;;;;4.07;1.30;;;;;;;;;;5114857;28;20445;-60
2022/06/14 11:48:43;;;;;;;4.22;1.63;;;;;;;;;;5114564;28;20453;-60
2022/06/14 11:51:28;;;;;;;4.57;1.40;;;;;;;;;;5114410;28;20101;-60
2022/06/14 11:54:00;;;;;;;3.90;1.38;;;;;;;;;;5114789;28;20424;-60
2022/06/14 11:56:41;;;;;;;4.22;1.38;;;;;;;;;;5114565;28;20039;-60
2022/06/14 11:59:31;;;;;;;6.05;1.38;;;;;;;;;;5114163;28;20541;-60
2022/06/14 12:02:21;;;;;;;4.53;1.67;;;;;;;;;;5114210;28;20442;-60
2022/06/14 12:04:59;;;;;;;5.05;1.40;;;;;;;;;;5114607;28;20035;-60
2022/06/14 12:07:24;;;;;;;3.53;1.20;;;;;;;;;;5114336;28;20046;-60
2022/06/14 12:10:09;;;;;;;3.55;1.40;;;;;;;;;;5113994;28;20031;-60
2022/06/14 12:12:44;;;;;;;3.75;1.42;;;;;;;;;;5114170;28;20046;-60
2022/06/14 12:15:30;;;;;;;3.05;1.35;;;;;;;;;;5114274;28;20397;-60
2022/06/14 12:18:00;;;;;;;3.95;1.27;;;;;;;;;;5114165;28;20114;-60
2022/06/14 12:20:26;;;;;;;4.57;1.33;;;;;;;;;;5113740;28;20114;-60
2022/06/14 12:22:55;;;;;;;2.55;1.30;;;;;;;;;;5114081;28;20063;-60
2022/06/14 12:28:33;;;;;;;4.55;1.30;;;;;;;;;;5113923;28;20043;-60
2022/06/14 12:31:05;;;;;;;5.32;1.40;;;;;;;;;;5113847;28;20036;-60
2022/06/14 12:33:35;;;;;;;5.03;1.60;;;;;;;;;;5113511;28;20039;-60
2022/06/14 12:36:13;;;;;;;5.18;1.30;;;;;;;;;;5113770;28;20040;-60
2022/06/14 12:38:41;;;;;;;4.18;1.35;;;;;;;;;;5113385;28;20036;-60
2022/06/14 12:41:20;;;;;;;3.60;1.30;;;;;;;;;;5113562;28;20109;-60
2022/06/14 12:44:08;;;;;;;3.70;1.42;;;;;;;;;;5113666;28;20036;-60
2022/06/14 12:46:37;;;;;;;2.97;1.20;;;;;;;;;;5113696;28;20282;-60
2022/06/14 12:49:17;;;;;;;4.30;1.40;;;;;;;;;;5113345;28;20039;-60
2022/06/14 12:51:55;;;;;;;5.75;1.42;;;;;;;;;;5113172;28;20078;-60
2022/06/14 12:54:21;;;;;;;4.72;1.27;;;;;;;;;;5113770;28;20047;-60
2022/06/14 12:57:06;;;;;;;3.47;1.17;;;;;;;;;;5113386;28;20031;-60
2022/06/14 12:59:38;;;;;;;3.67;1.27;;;;;;;;;;5113032;28;20071;-60
2022/06/14 13:02:04;;;;;;;3.72;1.30;;;;;;;;;;5112993;28;20100;-60
2022/06/14 13:04:33;;;;;;;3.33;1.20;;;;;;;;;;5113251;28;20036;-60
2022/06/14 13:07:32;;;;;;;2.72;1.00;;;;;;;;;;5113252;28;20100;-60
2022/06/14 13:10:16;;;;;;;4.10;1.25;;;;;;;;;;5089580;28;20052;-60
2022/06/14 13:13:01;;;;;;;4.60;1.38;;;;;;;;;;5112809;28;20370;-60
2022/06/14 13:15:34;;;;;;;3.63;1.10;;;;;;;;;;5113131;28;20386;-60
2022/06/14 13:18:00;;;;;;;3.47;1.00;;;;;;;;;;5113063;28;20050;-60
2022/06/14 13:20:45;;;;;;;4.03;1.15;;;;;;;;;;5112701;28;20031;-60
2022/06/14 13:23:14;;;;;;;3.08;1.15;;;;;;;;;;5112782;28;20093;-60
2022/06/14 13:25:59;;;;;;;2.50;1.15;;;;;;;;;;5112878;28;20035;-60
2022/06/14 13:28:35;;;;;;;2.50;0.95;;;;;;;;;;5112790;28;20048;-60
2022/06/14 13:31:20;;;;;;;4.40;1.10;;;;;;;;;;5112716;28;20035;-60
2022/06/14 13:33:52;;;;;;;3.42;1.40;;;;;;;;;;5112760;28;20169;-60
2022/06/14 13:36:18;;;;;;;2.90;1.13;;;;;;;;;;5112745;28;20043;-60
2022/06/14 13:38:55;;;;;;;2.38;0.98;;;;;;;;;;5112267;28;20040;-60
2022/06/14 13:41:33;;;;;;;2.95;1.15;;;;;;;;;;5112473;28;20500;-60
2022/06/14 13:44:07;;;;;;;3.00;0.98;;;;;;;;;;5112418;28;20043;-60
2022/06/14 13:46:33;;;;;;;2.50;1.10;;;;;;;;;;5112665;28;20496;-60
2022/06/14 13:49:02;;;;;;;2.72;1.23;;;;;;;;;;5112246;28;20044;-60
2022/06/14 13:51:37;;;;;;;3.53;1.23;;;;;;;;;;5112062;27;20031;-60
2022/06/14 13:54:15;;;;;;;2.95;1.20;;;;;;;;;;5112064;28;20036;-60
2022/06/14 13:56:47;;;;;;;2.17;1.00;;;;;;;;;;5112279;28;20516;-60
2022/06/14 13:59:16;;;;;;;3.42;0.95;;;;;;;;;;5112073;28;20137;-60
2022/06/14 14:01:45;;;;;;;3.15;1.05;;;;;;;;;;5112419;28;20031;-60
2022/06/14 14:04:30;;;;;;;3.35;1.17;;;;;;;;;;5112051;28;20396;-60
2022/06/14 14:06:56;;;;;;;2.95;1.02;;;;;;;;;;5112530;28;20074;-60
2022/06/14 14:09:25;;;;;;;5.10;1.10;;;;;;;;;;5111912;28;20035;-60
2022/06/14 14:12:05;;;;;;;3.35;1.30;;;;;;;;;;5112377;28;20055;-60
2022/06/14 14:14:40;;;;;;;2.90;1.58;;;;;;;;;;5094033;28;20050;-60
2022/06/14 14:17:06;;;;;;;4.18;1.10;;;;;;;;;;5093817;28;20402;-60
2022/06/14 14:19:43;;;;;;;2.55;0.90;;;;;;;;;;5112045;28;20115;-60
2022/06/14 14:22:18;;;;;;;2.22;1.15;;;;;;;;;;5112428;28;20067;-60
2022/06/14 14:24:47;;;;;;;4.60;1.20;;;;;;;;;;5111962;28;20123;-60
2022/06/14 14:27:46;;;;;;;1.58;0.90;;;;;;;;;;5112690;28;20118;-60
2022/06/14 14:30:16;;;;;;;2.90;1.30;;;;;;;;;;5088288;28;20470;-60
2022/06/14 14:33:02;;;;;;;4.93;1.10;;;;;;;;;;5111999;28;20063;-60
2022/06/14 14:35:33;;;;;;;3.78;1.15;;;;;;;;;;5111921;28;20481;-60
2022/06/14 14:38:11;;;;;;;3.72;1.13;;;;;;;;;;5111916;28;20043;-60
2022/06/14 14:41:32;;;;;;;4.45;1.20;;;;;;;;;;5126052;22;20485;-62
2022/06/14 14:43:28;;;;;;;1.92;0.90;;;;;;;;;;5093570;28;20052;-62
2022/06/14 14:45:57;;;;;;;2.40;1.10;;;;;;;;;;5111998;28;20044;-62
2022/06/14 14:48:39;;;;;;;2.30;0.98;;;;;;;;;;5111796;28;20043;-62
2022/06/14 14:51:10;;;;;;;4.43;1.13;;;;;;;;;;5111985;28;20035;-62
2022/06/14 14:53:46;;;;;;;2.17;1.00;;;;;;;;;;5111934;28;20040;-62
2022/06/14 14:56:15;;;;;;;3.30;0.90;;;;;;;;;;5111930;28;20124;-62
2022/06/14 14:58:53;;;;;;;3.35;0.90;;;;;;;;;;5111431;28;20032;-62
2022/06/14 15:07:04;;;;;;;3.55;1.85;;;;;;;;;;5115529;28;20489;-61
2022/06/14 15:09:32;;;;;;;1.95;0.93;;;;;;;;;;5115400;28;20043;-62
2022/06/14 15:12:00;;;;;;;2.13;1.10;;;;;;;;;;5097198;28;20055;-62
2022/06/14 15:14:27;;;;;;;3.83;1.23;;;;;;;;;;5115464;28;20046;-62
2022/06/14 15:19:56;;;;;;;2.60;0.98;;;;;;;;;;5114833;28;20496;-62
2022/06/14 15:22:35;;;;;;;1.27;0.82;;;;;;;;;;5115344;28;20046;-61
2022/06/14 15:25:07;;;;;;;3.22;1.20;;;;;;;;;;5115078;28;20119;-61
2022/06/14 15:27:40;;;;;;;3.00;0.98;;;;;;;;;;5115668;28;20046;-62
2022/06/14 15:30:07;;;;;;;2.60;1.02;;;;;;;;;;5114653;28;20108;-62
2022/06/14 15:32:34;;;;;;;3.50;1.52;;;;;;;;;;5115250;28;20066;-62
2022/06/14 15:35:02;;;;;;;4.50;1.20;;;;;;;;;;5114959;28;20378;-62
2022/06/14 15:37:29;;;;;;;3.83;1.20;;;;;;;;;;5114894;28;20043;-62
2022/06/14 15:39:59;;;;;;;2.17;1.00;;;;;;;;;;5114487;28;20039;-62
2022/06/14 15:42:25;;;;;;;1.67;0.80;;;;;;;;;;5114770;28;20035;-62
2022/06/14 15:44:51;;;;;;;2.15;0.88;;;;;;;;;;5114976;28;20058;-62
2022/06/14 15:47:17;;;;;;;2.75;1.10;;;;;;;;;;5096766;28;20124;-62